Time;durP1;ratioP1;P1;durP2;ratioP2;P2;SDS_P1;SDS_P2;PMS_P1;PMS_P2;Temp;Humidity;BMP_temperature;BMP_pressure;BME280_temperature;BME280_humidity;BME280_pressure;Samples;Min_cycle;Max_cycle;Signal;HPM_P1;HPM_P2
2022/10/23 00:00:37;;;;;;;27.10;11.43;;;;;;;;;;5095907;28;20278;-70
2022/10/23 00:03:04;;;;;;;24.63;13.17;;;;;;;;;;5094596;28;20290;-70
2022/10/23 00:05:30;;;;;;;24.90;11.63;;;;;;;;;;5095801;28;20753;-70
2022/10/23 00:07:57;;;;;;;24.47;12.20;;;;;;;;;;5095518;28;20289;-70
2022/10/23 00:10:24;;;;;;;27.97;13.03;;;;;;;;;;5095699;28;20325;-70
2022/10/23 00:12:50;;;;;;;25.27;13.50;;;;;;;;;;5095384;28;20278;-70
2022/10/23 00:15:18;;;;;;;33.43;15.00;;;;;;;;;;5095913;28;20270;-70
2022/10/23 00:17:44;;;;;;;25.23;14.17;;;;;;;;;;5095500;28;20357;-70
2022/10/23 00:20:11;;;;;;;26.47;12.77;;;;;;;;;;5094401;28;20302;-70
2022/10/23 00:22:37;;;;;;;25.93;12.60;;;;;;;;;;5095385;28;20281;-70
2022/10/23 00:25:06;;;;;;;25.17;12.67;;;;;;;;;;5095061;28;20290;-70
2022/10/23 00:27:32;;;;;;;29.70;13.13;;;;;;;;;;5095287;28;20282;-70
2022/10/23 00:29:58;;;;;;;28.90;12.77;;;;;;;;;;5094996;28;20274;-70
2022/10/23 00:32:25;;;;;;;23.30;11.97;;;;;;;;;;5095446;28;20300;-70
2022/10/23 00:34:51;;;;;;;22.97;11.90;;;;;;;;;;5094913;28;20282;-70
2022/10/23 00:37:17;;;;;;;26.63;13.17;;;;;;;;;;5095225;28;20278;-70
2022/10/23 00:39:43;;;;;;;26.60;13.60;;;;;;;;;;5095053;28;20298;-70
2022/10/23 00:42:14;;;;;;;25.67;13.20;;;;;;;;;;5094724;28;20274;-70
2022/10/23 00:44:40;;;;;;;38.67;14.00;;;;;;;;;;5095035;28;20270;-70
2022/10/23 00:47:06;;;;;;;23.87;13.60;;;;;;;;;;5094772;28;20355;-70
2022/10/23 00:49:32;;;;;;;25.50;12.83;;;;;;;;;;5095134;28;20309;-70
2022/10/23 00:52:03;;;;;;;24.10;12.93;;;;;;;;;;5094628;28;20293;-70
2022/10/23 00:54:32;;;;;;;24.57;11.60;;;;;;;;;;5093498;28;20680;-70
2022/10/23 00:57:00;;;;;;;23.27;11.47;;;;;;;;;;5093452;28;20321;-70
2022/10/23 00:59:27;;;;;;;27.10;13.57;;;;;;;;;;5094594;28;20294;-70
2022/10/23 01:01:53;;;;;;;26.20;14.43;;;;;;;;;;5094408;28;20289;-70
2022/10/23 01:04:19;;;;;;;25.87;15.73;;;;;;;;;;5094578;28;20338;-70
2022/10/23 01:06:51;;;;;;;26.37;14.43;;;;;;;;;;5094587;28;20507;-70
2022/10/23 01:09:33;;;;;;;28.23;14.67;;;;;;;;;;5094545;28;20301;-70
2022/10/23 01:12:06;;;;;;;24.03;14.47;;;;;;;;;;5094240;28;20369;-71
2022/10/23 01:14:39;;;;;;;27.53;16.00;;;;;;;;;;5094454;28;20301;-71
2022/10/23 01:17:19;;;;;;;37.37;17.57;;;;;;;;;;5094141;28;20667;-70
2022/10/23 01:20:03;;;;;;;24.17;15.00;;;;;;;;;;5094444;28;20321;-71
2022/10/23 01:22:48;;;;;;;27.13;15.23;;;;;;;;;;5094175;28;20282;-70
2022/10/23 01:25:23;;;;;;;29.98;15.88;;;;;;;;;;5093970;28;20365;-70
2022/10/23 01:27:55;;;;;;;23.75;15.45;;;;;;;;;;5094217;28;20048;-70
2022/10/23 01:30:21;;;;;;;28.57;14.80;;;;;;;;;;5093998;28;20055;-70
2022/10/23 01:32:53;;;;;;;23.67;12.50;;;;;;;;;;5093851;28;20278;-70
2022/10/23 01:35:25;;;;;;;21.77;14.20;;;;;;;;;;5094018;28;20357;-70
2022/10/23 01:37:54;;;;;;;27.50;15.63;;;;;;;;;;5094005;28;20278;-70
2022/10/23 01:40:23;;;;;;;27.87;16.10;;;;;;;;;;5092892;28;20297;-71
2022/10/23 01:42:52;;;;;;;31.93;17.10;;;;;;;;;;5093880;28;20353;-70
2022/10/23 01:45:27;;;;;;;29.03;16.47;;;;;;;;;;5093501;28;20846;-70
2022/10/23 01:47:54;;;;;;;31.27;17.27;;;;;;;;;;5093871;28;20742;-70
2022/10/23 01:50:21;;;;;;;26.90;16.20;;;;;;;;;;5093728;28;20278;-71
2022/10/23 01:52:47;;;;;;;28.43;16.90;;;;;;;;;;5093629;28;20776;-70
2022/10/23 01:55:14;;;;;;;24.73;15.27;;;;;;;;;;5093372;28;20328;-70
2022/10/23 01:57:41;;;;;;;30.90;17.07;;;;;;;;;;5093860;28;20307;-70
2022/10/23 02:00:08;;;;;;;30.50;17.47;;;;;;;;;;5093262;28;20297;-70
2022/10/23 02:02:35;;;;;;;31.43;18.23;;;;;;;;;;5093729;28;20729;-71
2022/10/23 02:05:06;;;;;;;29.67;18.00;;;;;;;;;;5093183;28;20278;-71
2022/10/23 02:07:32;;;;;;;33.13;18.97;;;;;;;;;;5093494;28;20275;-70
2022/10/23 02:09:59;;;;;;;29.40;17.27;;;;;;;;;;5093185;28;20274;-71
2022/10/23 02:12:42;;;;;;;26.80;16.97;;;;;;;;;;5093316;28;20289;-70
2022/10/23 02:15:13;;;;;;;31.07;18.37;;;;;;;;;;5093093;28;20278;-71
2022/10/23 02:17:45;;;;;;;28.60;16.80;;;;;;;;;;5093352;28;20827;-71
2022/10/23 02:20:20;;;;;;;32.33;17.40;;;;;;;;;;5092581;28;20367;-71
2022/10/23 02:22:52;;;;;;;33.90;19.40;;;;;;;;;;5093223;28;20373;-71
2022/10/23 02:25:21;;;;;;;31.13;17.60;;;;;;;;;;5092916;28;20113;-71
2022/10/23 02:27:50;;;;;;;25.73;15.90;;;;;;;;;;5093167;28;20278;-70
2022/10/23 02:30:17;;;;;;;31.37;18.53;;;;;;;;;;5092843;28;20278;-70
2022/10/23 02:32:54;;;;;;;26.43;17.03;;;;;;;;;;5093099;28;20627;-70
2022/10/23 02:35:21;;;;;;;34.53;18.37;;;;;;;;;;5092708;28;20351;-70
2022/10/23 02:37:57;;;;;;;30.37;17.63;;;;;;;;;;5093146;28;20722;-70
2022/10/23 02:40:43;;;;;;;28.30;17.30;;;;;;;;;;5092690;28;20642;-70
2022/10/23 02:43:09;;;;;;;26.50;16.47;;;;;;;;;;5092069;28;20312;-71
2022/10/23 02:45:35;;;;;;;25.97;16.93;;;;;;;;;;5092842;28;20292;-70
2022/10/23 02:48:01;;;;;;;25.27;16.57;;;;;;;;;;5091643;28;20274;-75
2022/10/23 02:50:27;;;;;;;26.57;17.10;;;;;;;;;;5092969;28;20361;-70
2022/10/23 02:53:10;;;;;;;26.20;15.87;;;;;;;;;;5092989;28;20044;-70
2022/10/23 02:55:37;;;;;;;26.97;16.90;;;;;;;;;;5092942;28;20343;-70
2022/10/23 02:58:23;;;;;;;25.77;15.37;;;;;;;;;;5092709;28;20776;-74
2022/10/23 03:00:51;;;;;;;24.37;15.60;;;;;;;;;;5092668;28;20369;-70
2022/10/23 03:03:29;;;;;;;27.13;16.97;;;;;;;;;;5092519;28;20630;-70
2022/10/23 03:05:55;;;;;;;23.17;14.43;;;;;;;;;;5092849;28;20733;-70
2022/10/23 03:08:22;;;;;;;27.90;15.40;;;;;;;;;;5091199;28;20325;-70
2022/10/23 03:10:48;;;;;;;24.97;15.93;;;;;;;;;;5092668;28;20282;-70
2022/10/23 03:13:14;;;;;;;26.20;16.57;;;;;;;;;;5092483;28;20302;-70
2022/10/23 03:15:40;;;;;;;22.47;15.23;;;;;;;;;;5092762;28;20327;-70
2022/10/23 03:18:06;;;;;;;26.17;16.43;;;;;;;;;;5092359;28;20278;-71
2022/10/23 03:20:32;;;;;;;27.20;16.30;;;;;;;;;;5091265;28;20631;-70
2022/10/23 03:22:58;;;;;;;23.03;15.93;;;;;;;;;;5092647;28;20316;-70
2022/10/23 03:25:24;;;;;;;22.40;15.70;;;;;;;;;;5091222;28;20289;-71
2022/10/23 03:27:50;;;;;;;26.70;16.13;;;;;;;;;;5092637;28;20278;-70
2022/10/23 03:30:17;;;;;;;28.40;16.37;;;;;;;;;;5092266;28;20270;-70
2022/10/23 03:32:43;;;;;;;26.13;17.03;;;;;;;;;;5091364;28;20282;-70
2022/10/23 03:35:09;;;;;;;20.53;15.43;;;;;;;;;;5092208;28;20321;-70
2022/10/23 03:37:35;;;;;;;27.57;17.10;;;;;;;;;;5092448;28;20285;-70
2022/10/23 03:40:01;;;;;;;27.00;17.10;;;;;;;;;;5092473;28;20776;-70
2022/10/23 03:42:27;;;;;;;27.73;18.10;;;;;;;;;;5092132;28;20361;-70
2022/10/23 03:44:53;;;;;;;23.40;16.40;;;;;;;;;;5092355;28;20278;-71
2022/10/23 03:47:19;;;;;;;28.67;18.20;;;;;;;;;;5092182;28;20339;-71
2022/10/23 03:49:45;;;;;;;29.67;17.77;;;;;;;;;;5092619;28;20278;-70
2022/10/23 03:52:12;;;;;;;28.17;17.37;;;;;;;;;;5092037;28;20282;-71
2022/10/23 03:54:38;;;;;;;29.67;18.20;;;;;;;;;;5093780;28;20687;-70
2022/10/23 03:57:04;;;;;;;24.97;18.03;;;;;;;;;;5096001;28;20575;-70
2022/10/23 03:59:31;;;;;;;29.70;18.53;;;;;;;;;;5095561;28;20400;-70
2022/10/23 04:01:57;;;;;;;30.87;18.33;;;;;;;;;;5095784;28;20274;-70
2022/10/23 04:04:23;;;;;;;27.83;18.53;;;;;;;;;;5094514;28;20291;-71
2022/10/23 04:06:49;;;;;;;31.07;19.83;;;;;;;;;;5094779;28;20282;-70
2022/10/23 04:09:15;;;;;;;29.97;19.13;;;;;;;;;;5095172;28;20841;-71
2022/10/23 04:11:41;;;;;;;29.20;18.60;;;;;;;;;;5094696;28;20692;-70
2022/10/23 04:14:07;;;;;;;29.70;18.97;;;;;;;;;;5095858;28;20619;-70
2022/10/23 04:16:33;;;;;;;29.97;19.27;;;;;;;;;;5095362;28;20329;-70
2022/10/23 04:18:59;;;;;;;35.13;21.20;;;;;;;;;;5077291;28;20313;-71
2022/10/23 04:21:26;;;;;;;31.67;19.63;;;;;;;;;;5094404;28;20290;-70
2022/10/23 04:23:52;;;;;;;27.47;19.73;;;;;;;;;;5095365;28;20339;-70
2022/10/23 04:26:18;;;;;;;29.27;19.93;;;;;;;;;;5095134;28;20331;-70
2022/10/23 04:28:44;;;;;;;27.10;18.87;;;;;;;;;;5095307;28;20310;-70
2022/10/23 04:31:10;;;;;;;30.37;21.60;;;;;;;;;;5095268;28;20274;-70
2022/10/23 04:33:36;;;;;;;26.33;21.37;;;;;;;;;;5094951;28;20286;-70
2022/10/23 04:36:02;;;;;;;29.93;19.87;;;;;;;;;;5095374;28;20357;-70
2022/10/23 04:38:28;;;;;;;32.57;21.17;;;;;;;;;;5094823;28;20302;-70
2022/10/23 04:40:54;;;;;;;32.63;22.27;;;;;;;;;;5095126;28;20278;-70
2022/10/23 04:43:20;;;;;;;35.33;22.37;;;;;;;;;;5093660;28;20773;-71
2022/10/23 04:45:48;;;;;;;33.13;21.90;;;;;;;;;;5094320;28;20754;-70
2022/10/23 04:48:14;;;;;;;33.50;21.70;;;;;;;;;;5095104;28;20283;-71
2022/10/23 04:50:40;;;;;;;30.17;21.90;;;;;;;;;;5094431;28;20548;-70
2022/10/23 04:53:06;;;;;;;33.17;23.53;;;;;;;;;;5094986;28;20646;-71
2022/10/23 04:55:32;;;;;;;33.57;21.70;;;;;;;;;;5093642;28;20351;-71
2022/10/23 04:57:58;;;;;;;31.50;22.67;;;;;;;;;;5095029;28;20278;-71
2022/10/23 05:00:24;;;;;;;31.20;22.27;;;;;;;;;;5094394;28;20348;-71
2022/10/23 05:02:50;;;;;;;32.00;20.40;;;;;;;;;;5094710;28;20278;-70
2022/10/23 05:05:17;;;;;;;35.27;21.37;;;;;;;;;;5093246;28;20769;-70
2022/10/23 05:07:43;;;;;;;32.67;21.57;;;;;;;;;;5094456;28;20283;-70
2022/10/23 05:10:09;;;;;;;31.13;22.63;;;;;;;;;;5094563;28;20285;-70
2022/10/23 05:12:35;;;;;;;31.53;22.00;;;;;;;;;;5094266;28;20353;-71
2022/10/23 05:15:01;;;;;;;32.90;21.60;;;;;;;;;;5094522;28;20274;-70
2022/10/23 05:17:34;;;;;;;31.10;22.40;;;;;;;;;;5094161;28;20419;-71
2022/10/23 05:20:02;;;;;;;31.97;22.30;;;;;;;;;;5094455;28;20363;-71
2022/10/23 05:22:31;;;;;;;32.50;21.67;;;;;;;;;;5094186;28;20278;-71
2022/10/23 05:24:57;;;;;;;32.20;22.33;;;;;;;;;;5094188;28;20274;-71
2022/10/23 05:27:23;;;;;;;36.63;23.90;;;;;;;;;;5093982;28;20285;-71
2022/10/23 05:29:49;;;;;;;35.67;23.57;;;;;;;;;;5094117;28;20281;-70
2022/10/23 05:32:16;;;;;;;38.17;23.07;;;;;;;;;;5092950;28;20698;-70
2022/10/23 05:34:42;;;;;;;32.23;22.10;;;;;;;;;;5093807;28;20389;-70
2022/10/23 05:37:10;;;;;;;31.00;19.70;;;;;;;;;;5094148;28;20709;-70
2022/10/23 05:39:36;;;;;;;37.30;23.87;;;;;;;;;;5093347;28;20778;-70
2022/10/23 05:42:02;;;;;;;36.97;24.30;;;;;;;;;;5092851;28;20641;-70
2022/10/23 05:44:28;;;;;;;37.83;22.00;;;;;;;;;;5092149;28;20793;-71
2022/10/23 05:46:54;;;;;;;37.13;22.33;;;;;;;;;;5093880;28;20282;-71
2022/10/23 05:49:20;;;;;;;35.73;22.93;;;;;;;;;;5093871;28;20275;-71
2022/10/23 05:51:46;;;;;;;32.30;21.40;;;;;;;;;;5093446;28;20279;-70
2022/10/23 05:54:12;;;;;;;37.47;24.33;;;;;;;;;;5093750;28;20369;-70
2022/10/23 05:56:42;;;;;;;41.87;23.80;;;;;;;;;;5093338;28;20278;-71
2022/10/23 05:59:09;;;;;;;32.70;22.03;;;;;;;;;;5093833;28;20337;-70
2022/10/23 06:01:35;;;;;;;35.93;22.33;;;;;;;;;;5093370;28;20305;-70
2022/10/23 06:04:02;;;;;;;35.27;23.90;;;;;;;;;;5093677;28;20308;-70
2022/10/23 06:06:28;;;;;;;25.67;17.90;;;;;;;;;;5093249;28;20282;-71
2022/10/23 06:08:54;;;;;;;39.47;24.10;;;;;;;;;;5093517;28;20274;-70
2022/10/23 06:11:20;;;;;;;37.43;22.17;;;;;;;;;;5093397;28;20283;-70
2022/10/23 06:13:49;;;;;;;38.30;23.80;;;;;;;;;;5091813;28;20293;-71
2022/10/23 06:16:16;;;;;;;37.50;23.30;;;;;;;;;;5092539;28;20754;-70
2022/10/23 06:18:43;;;;;;;36.50;23.03;;;;;;;;;;5092844;28;20304;-70
2022/10/23 06:21:09;;;;;;;36.07;22.10;;;;;;;;;;5092924;28;20290;-70
2022/10/23 06:23:36;;;;;;;31.43;22.53;;;;;;;;;;5092934;28;20285;-70
2022/10/23 06:26:02;;;;;;;39.40;24.17;;;;;;;;;;5093152;28;20750;-70
2022/10/23 06:28:28;;;;;;;31.63;22.87;;;;;;;;;;5093030;28;20274;-74
2022/10/23 06:30:54;;;;;;;39.37;21.83;;;;;;;;;;5092322;28;20617;-70
2022/10/23 06:33:20;;;;;;;35.23;23.23;;;;;;;;;;5093175;28;20633;-70
2022/10/23 06:35:46;;;;;;;38.87;22.03;;;;;;;;;;5092828;28;20282;-70
2022/10/23 06:38:13;;;;;;;41.07;24.70;;;;;;;;;;5093000;28;20317;-70
2022/10/23 06:40:39;;;;;;;33.37;21.43;;;;;;;;;;5092807;28;20607;-70
2022/10/23 06:43:05;;;;;;;34.87;21.07;;;;;;;;;;5092953;28;20339;-71
2022/10/23 06:45:33;;;;;;;34.47;23.13;;;;;;;;;;5092761;28;20282;-71
2022/10/23 06:47:59;;;;;;;37.37;23.33;;;;;;;;;;5092903;28;20286;-70
2022/10/23 06:50:25;;;;;;;32.20;20.90;;;;;;;;;;5093083;28;20279;-70
2022/10/23 06:52:51;;;;;;;39.20;22.93;;;;;;;;;;5092693;28;20286;-70
2022/10/23 06:55:18;;;;;;;36.53;22.83;;;;;;;;;;5092822;28;20366;-70
2022/10/23 06:57:44;;;;;;;38.47;21.57;;;;;;;;;;5074474;28;20282;-70
2022/10/23 07:00:10;;;;;;;38.20;21.83;;;;;;;;;;5091248;28;20719;-70
2022/10/23 07:02:36;;;;;;;38.83;23.07;;;;;;;;;;5092504;28;20296;-71
2022/10/23 07:05:03;;;;;;;34.70;21.80;;;;;;;;;;5092825;28;20353;-70
2022/10/23 07:07:29;;;;;;;37.30;22.10;;;;;;;;;;5092790;28;20285;-70
2022/10/23 07:09:55;;;;;;;32.43;20.57;;;;;;;;;;5092459;28;20278;-70
2022/10/23 07:12:21;;;;;;;34.77;21.97;;;;;;;;;;5092704;28;20278;-70
2022/10/23 07:14:47;;;;;;;34.73;21.60;;;;;;;;;;5092517;28;20278;-70
2022/10/23 07:17:13;;;;;;;32.87;22.00;;;;;;;;;;5092873;28;20293;-70
2022/10/23 07:19:40;;;;;;;34.67;20.67;;;;;;;;;;5091938;28;20306;-70
2022/10/23 07:22:06;;;;;;;36.03;21.70;;;;;;;;;;5092630;28;20289;-70
2022/10/23 07:24:35;;;;;;;35.83;21.37;;;;;;;;;;5092766;28;20278;-70
2022/10/23 07:27:02;;;;;;;26.97;20.07;;;;;;;;;;5092816;28;20642;-70
2022/10/23 07:29:28;;;;;;;34.80;21.83;;;;;;;;;;5095836;28;20281;-70
2022/10/23 07:31:54;;;;;;;35.43;21.53;;;;;;;;;;5096155;28;20389;-70
2022/10/23 07:34:20;;;;;;;33.27;20.37;;;;;;;;;;5095406;28;20286;-70
2022/10/23 07:36:46;;;;;;;30.07;21.03;;;;;;;;;;5095907;28;20338;-70
2022/10/23 07:39:13;;;;;;;30.77;20.33;;;;;;;;;;5094941;28;20306;-70
2022/10/23 07:41:39;;;;;;;34.07;22.10;;;;;;;;;;5096039;28;20309;-71
2022/10/23 07:44:05;;;;;;;33.80;19.90;;;;;;;;;;5096434;28;20281;-70
2022/10/23 07:46:31;;;;;;;35.50;20.20;;;;;;;;;;5096154;28;20285;-70
2022/10/23 07:48:57;;;;;;;29.20;20.43;;;;;;;;;;5095818;28;20304;-71
2022/10/23 07:51:23;;;;;;;31.33;20.93;;;;;;;;;;5096152;28;20274;-71
2022/10/23 07:53:49;;;;;;;36.50;22.13;;;;;;;;;;5095745;28;20361;-71
2022/10/23 07:56:17;;;;;;;33.20;19.97;;;;;;;;;;5095978;28;20282;-71
2022/10/23 07:58:43;;;;;;;32.43;21.20;;;;;;;;;;5095595;28;20298;-71
2022/10/23 08:01:15;;;;;;;31.90;20.73;;;;;;;;;;5095891;28;20278;-70
2022/10/23 08:03:41;;;;;;;35.37;19.83;;;;;;;;;;5094719;28;20286;-71
2022/10/23 08:06:07;;;;;;;34.53;22.27;;;;;;;;;;5095611;28;20788;-71
2022/10/23 08:08:33;;;;;;;30.90;20.40;;;;;;;;;;5095925;28;20282;-71
2022/10/23 08:10:59;;;;;;;32.13;21.07;;;;;;;;;;5093785;28;21103;-72
2022/10/23 08:13:25;;;;;;;32.87;18.70;;;;;;;;;;5095683;28;20356;-71
2022/10/23 08:15:52;;;;;;;29.53;19.07;;;;;;;;;;5095104;28;20906;-72
2022/10/23 08:18:18;;;;;;;28.73;18.57;;;;;;;;;;5095840;28;20285;-72
2022/10/23 08:20:46;;;;;;;29.30;19.63;;;;;;;;;;5095260;28;20653;-72
2022/10/23 08:23:13;;;;;;;27.57;17.60;;;;;;;;;;5094174;28;20673;-72
2022/10/23 08:25:39;;;;;;;28.00;17.93;;;;;;;;;;5095783;28;20282;-72
2022/10/23 08:28:06;;;;;;;24.90;16.80;;;;;;;;;;5095400;28;20282;-71
2022/10/23 08:30:32;;;;;;;24.03;17.00;;;;;;;;;;5095592;28;20611;-71
2022/10/23 08:32:58;;;;;;;25.27;15.93;;;;;;;;;;5095050;28;20285;-72
2022/10/23 08:35:24;;;;;;;26.57;17.53;;;;;;;;;;5095186;28;20757;-71
2022/10/23 08:37:50;;;;;;;24.03;16.23;;;;;;;;;;5094672;28;20761;-71
2022/10/23 08:40:17;;;;;;;24.30;16.77;;;;;;;;;;5094160;28;20733;-71
2022/10/23 08:42:46;;;;;;;22.13;14.80;;;;;;;;;;5094919;28;20320;-72
2022/10/23 08:45:29;;;;;;;26.00;16.93;;;;;;;;;;5095065;28;20346;-71
2022/10/23 08:47:57;;;;;;;25.63;15.43;;;;;;;;;;5094838;28;20349;-70
2022/10/23 08:50:29;;;;;;;24.00;15.10;;;;;;;;;;5094914;28;20279;-71
2022/10/23 08:53:11;;;;;;;21.03;15.53;;;;;;;;;;5093477;28;20310;-73
2022/10/23 08:55:41;;;;;;;23.47;15.70;;;;;;;;;;5094053;28;20317;-72
2022/10/23 08:58:14;;;;;;;22.20;16.03;;;;;;;;;;5093567;28;20289;-72
2022/10/23 09:00:41;;;;;;;22.07;16.00;;;;;;;;;;5094774;28;20762;-71
2022/10/23 09:03:10;;;;;;;23.67;16.30;;;;;;;;;;5093487;28;20291;-72
2022/10/23 09:05:36;;;;;;;21.50;14.07;;;;;;;;;;5094747;28;20286;-73
2022/10/23 09:08:08;;;;;;;23.43;14.53;;;;;;;;;;5094521;28;20278;-71
2022/10/23 09:10:34;;;;;;;21.07;15.13;;;;;;;;;;5094085;28;20415;-71
2022/10/23 09:13:04;;;;;;;21.53;14.60;;;;;;;;;;5094101;28;20286;-72
2022/10/23 09:15:41;;;;;;;18.37;14.17;;;;;;;;;;5094462;28;20733;-71
2022/10/23 09:18:11;;;;;;;23.93;14.23;;;;;;;;;;5094251;28;20300;-73
2022/10/23 09:20:39;;;;;;;24.93;13.30;;;;;;;;;;5094044;28;20627;-73
2022/10/23 09:23:16;;;;;;;20.97;14.03;;;;;;;;;;5092869;28;20286;-74
2022/10/23 09:25:43;;;;;;;19.03;12.77;;;;;;;;;;5094376;28;20353;-75
2022/10/23 09:28:30;;;;;;;20.97;13.93;;;13.30;99.90;;;;;;5093694;28;20826;-76
2022/10/23 09:31:09;;;;;;;17.03;12.90;;;13.30;99.90;;;;;;5094033;28;20353;-74
2022/10/23 09:33:38;;;;;;;19.40;12.17;;;;;;;;;;5094023;28;20282;-75
2022/10/23 09:36:06;;;;;;;21.90;12.77;;;;;;;;;;5093859;28;20379;-76
2022/10/23 09:38:45;;;;;;;17.13;11.27;;;13.50;99.90;;;;;;5093984;28;20309;-74
2022/10/23 09:41:26;;;;;;;19.17;11.90;;;13.50;99.90;;;;;;5090757;28;20277;-75
2022/10/23 09:43:59;;;;;;;17.43;12.07;;;13.50;99.90;;;;;;5089541;28;20631;-79
2022/10/23 09:46:35;;;;;;;21.37;12.23;;;13.60;99.90;;;;;;5094108;28;20274;-75
2022/10/23 09:49:01;;;;;;;15.63;11.37;;;;;;;;;;5093754;28;20273;-79
2022/10/23 09:51:27;;;;;;;19.57;12.30;;;;;;;;;;5093805;28;20744;-73
2022/10/23 09:53:54;;;;;;;18.47;11.00;;;;;;;;;;5093688;28;20278;-73
2022/10/23 09:56:29;;;;;;;16.70;10.17;;;;;;;;;;5093760;28;20278;-73
2022/10/23 09:59:00;;;;;;;15.98;10.63;;;;;;;;;;5093340;28;20391;-76
2022/10/23 10:01:27;;;;;;;16.90;9.43;;;;;;;;;;5093647;28;20048;-78
2022/10/23 10:03:54;;;;;;;15.30;10.30;;;;;;;;;;5093448;28;20270;-75
2022/10/23 10:06:26;;;;;;;16.43;10.13;;;13.90;99.90;;;;;;5093526;28;20347;-75
2022/10/23 10:09:01;;;;;;;14.70;9.67;;;14.00;99.90;;;;;;5093311;28;20274;-76
2022/10/23 10:11:41;;;;;;;16.87;9.30;;;;;;;;;;5093235;28;20285;-80
2022/10/23 10:14:21;;;;;;;13.77;9.30;;;;;;;;;;5093392;28;20282;-74
2022/10/23 10:16:57;;;;;;;15.97;9.27;;;;;;;;;;5093234;28;20298;-72
2022/10/23 10:19:29;;;;;;;13.20;7.73;;;;;;;;;;5093316;28;20629;-73
2022/10/23 10:22:03;;;;;;;15.23;8.37;;;;;;;;;;5092169;28;20395;-73
2022/10/23 10:24:35;;;;;;;15.57;8.03;;;;;;;;;;5092824;28;20142;-71
2022/10/23 10:27:34;;;;;;;12.47;7.20;;;;;;;;;;5092528;28;20642;-74
2022/10/23 10:30:09;;;;;;;14.93;7.27;;;;;;;;;;5069037;28;20634;-72
2022/10/23 10:32:38;;;;;;;14.80;8.75;;;;;;;;;;5090689;28;20278;-72
2022/10/23 10:35:15;;;;;;;13.17;8.00;;;;;;;;;;5074602;28;20048;-72
2022/10/23 10:38:00;;;;;;;13.70;7.60;;;;;;;;;;5115923;27;20052;-72
2022/10/23 10:40:38;;;;;;;12.10;6.50;;;;;;;;;;5091990;28;20125;-74
2022/10/23 10:43:16;;;;;;;11.93;7.00;;;;;;;;;;5092715;28;20135;-73
2022/10/23 10:45:52;;;;;;;15.87;5.63;;;;;;;;;;5092293;28;20384;-73
2022/10/23 10:48:27;;;;;;;10.87;5.50;;;;;;;;;;5092772;28;20282;-73
2022/10/23 10:51:07;;;;;;;12.30;6.37;;;14.90;99.90;;;;;;5092891;28;20286;-72
2022/10/23 10:53:54;;;;;;;13.83;5.97;;;15.00;99.90;;;;;;5092928;28;20044;-73
2022/10/23 10:56:21;;;;;;;11.07;5.03;;;;;;;;;;5092675;28;20048;-73
2022/10/23 10:58:52;;;;;;;10.17;6.33;;;;;;;;;;5092925;28;20044;-77
2022/10/23 11:01:37;;;;;;;12.77;5.87;;;;;;;;;;5092152;28;20035;-76
2022/10/23 11:04:03;;;;;;;9.55;5.07;;;;;;;;;;5127498;27;20048;-75
2022/10/23 11:06:30;;;;;;;14.30;5.30;;;;;;;;;;5096920;28;20515;-74
2022/10/23 11:08:59;;;;;;;9.40;4.93;;;;;;;;;;5092940;28;20113;-79
2022/10/23 11:11:32;;;;;;;11.87;5.73;;;;;;;;;;5083409;28;20108;-74
2022/10/23 11:13:58;;;;;;;10.53;5.13;;;;;;;;;;5089864;28;20047;-75
2022/10/23 11:16:36;;;;;;;10.37;5.50;;;;;;;;;;5091166;28;20067;-73
2022/10/23 11:19:13;;;;;;;8.73;4.87;;;;;;;;;;5090930;28;20455;-75
2022/10/23 11:21:45;;;;;;;10.93;5.17;;;;;;;;;;5090477;28;20092;-74
2022/10/23 11:24:21;;;;;;;8.67;5.17;;;;;;;;;;5088742;28;20082;-73
2022/10/23 11:26:53;;;;;;;10.20;4.93;;;;;;;;;;5090795;28;20062;-74
2022/10/23 11:29:34;;;;;;;11.17;5.43;;;;;;;;;;5090540;28;20052;-75
2022/10/23 11:32:26;;;;;;;9.03;4.60;;;;;;;;;;5088907;28;20055;-78
2022/10/23 11:34:55;;;;;;;9.00;5.30;;;;;;;;;;5087783;28;20063;-78
2022/10/23 11:37:23;;;;;;;11.40;5.07;;;;;;;;;;5090988;28;20087;-77
2022/10/23 11:40:02;;;;;;;11.40;4.80;;;;;;;;;;5090691;28;20278;-75
2022/10/23 11:42:48;;;;;;;12.13;4.87;;;;;;;;;;5090494;28;20487;-73
2022/10/23 11:45:34;;;;;;;11.80;4.60;;;;;;;;;;5089991;28;20048;-74
2022/10/23 11:48:04;;;;;;;11.17;5.00;;;;;;;;;;5090319;28;20713;-74
2022/10/23 11:50:31;;;;;;;9.80;4.73;;;;;;;;;;5089938;28;20044;-73
2022/10/23 11:52:59;;;;;;;12.20;4.47;;;;;;;;;;5088535;28;20054;-73
2022/10/23 11:55:27;;;;;;;10.37;4.50;;;;;;;;;;5090738;28;20051;-73
2022/10/23 11:58:13;;;;;;;9.73;4.40;;;;;;;;;;5090391;28;20036;-74
2022/10/23 12:00:40;;;;;;;8.00;4.13;;;;;;;;;;5090110;28;20091;-77
2022/10/23 12:03:17;;;;;;;8.67;4.70;;;;;;;;;;5088600;28;20078;-74
2022/10/23 12:05:44;;;;;;;8.73;4.50;;;;;;;;;;5091030;28;20484;-74
2022/10/23 12:08:20;;;;;;;10.33;4.60;;;;;;;;;;5088727;28;20048;-74
2022/10/23 12:10:49;;;;;;;9.13;4.47;;;;;;;;;;5088910;28;20726;-75
2022/10/23 12:13:43;;;;;;;9.57;3.83;;;;;;;;;;5086746;28;20052;-73
2022/10/23 12:16:09;;;;;;;12.77;4.13;;;;;;;;;;5088619;28;20091;-78
2022/10/23 12:18:49;;;;;;;10.53;4.27;;;;;;;;;;5089703;28;20392;-73
2022/10/23 12:21:17;;;;;;;7.93;3.87;;;;;;;;;;5089244;28;20485;-76
2022/10/23 12:23:49;;;;;;;10.07;4.33;;;;;;;;;;5089523;28;20136;-74
2022/10/23 12:26:19;;;;;;;12.33;3.87;;;;;;;;;;5089992;28;20051;-74
2022/10/23 12:28:45;;;;;;;9.73;3.90;;;;;;;;;;5089686;28;20168;-74
2022/10/23 12:31:11;;;;;;;9.27;3.73;;;;;;;;;;5088883;28;20052;-73
2022/10/23 12:33:52;;;;;;;9.93;3.43;;;;;;;;;;5088309;28;20063;-76
2022/10/23 12:36:30;;;;;;;7.90;4.17;;;;;;;;;;5089393;28;20124;-73
2022/10/23 12:38:57;;;;;;;7.33;4.20;;;;;;;;;;5089540;28;20059;-73
2022/10/23 12:41:31;;;;;;;8.60;4.53;;;;;;;;;;5088789;28;20044;-78
2022/10/23 12:44:01;;;;;;;11.03;3.53;;;;;;;;;;5087793;28;20044;-75
2022/10/23 12:46:30;;;;;;;8.23;4.20;;;;;;;;;;5089784;28;20113;-76
2022/10/23 12:48:57;;;;;;;10.40;3.60;;;;;;;;;;5090146;28;20048;-73
2022/10/23 12:51:25;;;;;;;9.50;4.23;;;;;;;;;;5088613;28;20145;-73
2022/10/23 12:53:51;;;;;;;9.63;3.80;;;;;;;;;;5085860;28;20048;-73
2022/10/23 12:56:17;;;;;;;7.90;3.23;;;;;;;;;;5089678;28;20051;-74
2022/10/23 12:58:49;;;;;;;10.33;3.60;;;;;;;;;;5089375;28;20044;-73
2022/10/23 13:01:23;;;;;;;10.20;3.50;;;;;;;;;;5088524;28;20213;-74
2022/10/23 13:03:49;;;;;;;8.63;3.83;;;;;;;;;;5085893;28;20047;-75
2022/10/23 13:06:15;;;;;;;6.87;3.80;;;;;;;;;;5088765;28;20554;-73
2022/10/23 13:08:44;;;;;;;9.60;4.37;;;;;;;;;;5089691;28;20074;-77
2022/10/23 13:11:14;;;;;;;11.80;4.10;;;;;;;;;;5088883;28;20093;-74
2022/10/23 13:13:41;;;;;;;12.23;4.23;;;;;;;;;;5087433;28;20040;-74
2022/10/23 13:16:17;;;;;;;8.07;3.73;;;;;;;;;;5088661;28;20120;-75
2022/10/23 13:18:43;;;;;;;9.83;4.23;;;;;;;;;;5088913;28;20040;-74
2022/10/23 13:21:15;;;;;;;11.63;4.10;;;;;;;;;;5088000;28;20052;-74
2022/10/23 13:23:42;;;;;;;7.03;3.70;;;;;;;;;;5086890;28;20052;-74
2022/10/23 13:26:25;;;;;;;13.07;3.60;;;;;;;;;;5089069;28;20058;-73
2022/10/23 13:28:51;;;;;;;8.73;3.13;;;;;;;;;;5087647;28;20039;-75
2022/10/23 13:31:17;;;;;;;8.90;3.60;;;;;;;;;;5088540;28;20388;-74
2022/10/23 13:33:44;;;;;;;8.87;3.53;;;;;;;;;;5082028;28;20675;-75
2022/10/23 13:36:13;;;;;;;11.53;3.13;;;;;;;;;;5085564;28;20056;-75
2022/10/23 13:38:39;;;;;;;8.03;3.07;;;;;;;;;;5085914;28;20044;-79
2022/10/23 13:41:10;;;;;;;12.03;3.00;;;;;;;;;;5084041;28;20047;-76
2022/10/23 13:43:36;;;;;;;18.27;3.93;;;;;;;;;;5085609;28;20447;-74
2022/10/23 13:46:02;;;;;;;7.73;3.20;;;;;;;;;;5085463;28;20492;-73
2022/10/23 13:48:29;;;;;;;10.00;3.80;;;;;;;;;;5093587;28;20070;-72
2022/10/23 13:51:01;;;;;;;9.83;3.93;;;;;;;;;;5093086;28;20479;-73
2022/10/23 13:53:29;;;;;;;7.67;3.90;;;;;;;;;;5084676;28;20109;-74
2022/10/23 13:55:55;;;;;;;9.20;3.07;;;;;;;;;;5086298;28;20051;-74
2022/10/23 13:58:21;;;;;;;10.27;3.17;;;;;;;;;;5082953;28;20554;-73
2022/10/23 14:00:49;;;;;;;11.47;3.07;;;;;;;;;;5086716;28;20496;-73
2022/10/23 14:03:16;;;;;;;9.17;3.53;;;;;;;;;;5083378;28;20047;-76
2022/10/23 14:05:42;;;;;;;12.47;4.27;;;;;;;;;;5088886;28;20048;-73
2022/10/23 14:08:08;;;;;;;8.30;3.60;;;;;;;;;;5082817;28;20194;-76
2022/10/23 14:10:34;;;;;;;7.80;3.50;;;;;;;;;;5084642;28;20066;-74
2022/10/23 14:13:00;;;;;;;6.70;3.43;;;;;;;;;;5084586;28;20043;-77
2022/10/23 14:15:26;;;;;;;10.90;3.40;;;;;;;;;;5085457;28;20118;-74
2022/10/23 14:17:52;;;;;;;9.03;3.67;;;;;;;;;;5086009;28;20073;-74
2022/10/23 14:20:18;;;;;;;9.60;3.30;;;;;;;;;;5079588;28;20098;-76
2022/10/23 14:22:44;;;;;;;11.20;3.60;;;;;;;;;;5086860;28;20044;-77
2022/10/23 14:25:10;;;;;;;9.37;4.00;;;;;;;;;;5081582;28;20044;-78
2022/10/23 14:27:36;;;;;;;9.27;4.07;;;;;;;;;;5086627;28;20357;-73
2022/10/23 14:30:03;;;;;;;8.13;3.90;;;;;;;;;;5086291;28;20047;-72